Registration

All data are given in time UTC except for the places where it is expressly stated to the contrary, The data provided on this website are informative!!!


Actual Weather
 
General weather forecast

Storms are forecasted to occur over a large area with rain or hail.
kujlubellodzmalmazpodkpodlpomslaswiwarwielopoTHUNDERSTORMS (st.1)Disturbances in the operation of electrical, electronical devices.Interference in radio and satellite communications.Difficulties in troops deployment (patched roads through broken branches and trees).Threat to life because of lightning.Possibility of damage to military equipment.Fire risk. Disturbances in the operation of radiolocation devices.
Weather - Poland
14°C Szczecin 13°C Suwałki 13°C Warszawa 15°C Poznan
11°C Opole 11°C Kraków 15°C Rzeszów
More cities in Poland

Weather - Europe
18°C Paryz 15°C Bruksela 13°C Oslo 13°C Praga
18°C Zagrzeb
More cities in Europe

METAR EPBC 191200Z 29008KT 9999 BKN030 14/05 Q1021=
METAR EPCE 191200Z 32012KT 9999 BKN045 13/05 Q1022 RMK 133 055 5/5=
METAR EPDA 191200Z 31014KT 280V360 9999 FEW029 14/05 Q1024 RMK 139 054 1/1=
METAR EPDE 191200Z 27012KT 9999 SCT034 BKN070 13/05 Q1021 RMK 131 059 6/4=
METAR EPIR 191200Z 33014G22KT 9999 FEW046TCU SCT050 15/03 Q1022 RMK 147 045 4/2=
METAR EPKS 191200Z 32010KT 9999 FEW030CB BKN045 15/06 Q1024 RMK 148 054 5/2 LTG DSNT S=
METAR EPLK 191200Z 28012KT 260V320 9999 SCT026 BKN060 BKN100 12/06 Q1023 RMK 119 066 6/4=
METAR EPLY 191200Z 28010KT 9999 SCT025 BKN040 12/07 Q1023 RMK 120 074 7/3=
METAR EPMB 191200Z VRB06KT 9999 FEW035CB SCT045TCU 15/05 Q1021 RMK 145 051 4/1=
METAR EPMI 191200Z 28006KT 9999 SCT025CB BKN040 14/07 Q1024 RMK 140 061 5/3=
METAR EPMM 191200Z 29014KT 240V300 9999 FEW027CB BKN033TCU 14/06 Q1020 RMK 140 058 6/2=
METAR EPNA 191200Z 27007KT 9999 FEW020CB BKN030 16/06 Q1024 RMK 157 057 5/2=
METAR EPOK 191200Z 32019KT 9999 SCT045 15/04 Q1021 RMK 147 049 4/4=
METAR EPPR 191200Z 29018KT 9999 SCT046 17/01 Q1021 RMK 169 034 4/4=
METAR EPPW 191200Z 31006KT 9999 FEW022CB BKN040 12/06 Q1023 RMK 122 066 6/2=
METAR EPSN 191200Z AUTO 33013KT 300V010 9999 SCT050/// 15/03 Q1024 RMK 150 043 4/4=
METAR EPTM 191200Z 26006KT 9999 BKN024 13/05 Q1023 RMK 129 059 7/7=


 

Copyright©2007 HS-PAF All rights reserved.